createdAt,value
2023-01-26T00:13:40.125Z,1.50
2023-01-26T00:28:42.655Z,2.10
2023-01-26T00:43:45.049Z,2.20
2023-01-26T00:58:48.758Z,2.20
2023-01-26T01:13:51.198Z,2.30
2023-01-26T01:28:55.982Z,2.40
2023-01-26T01:44:17.628Z,2.00
2023-01-26T01:59:22.326Z,2.10
2023-01-26T02:14:25.629Z,2.30
2023-01-26T02:29:27.994Z,2.50
2023-01-26T02:44:32.123Z,2.50
2023-01-26T02:59:34.699Z,2.70
2023-01-26T03:14:37.186Z,2.40
2023-01-26T03:29:40.547Z,2.50
2023-01-26T03:45:01.607Z,2.50
2023-01-26T04:00:06.138Z,2.50
2023-01-26T04:15:33.198Z,2.60
2023-01-26T04:30:37.262Z,2.50
2023-01-26T04:45:39.777Z,1.60
2023-01-26T05:00:43.293Z,1.70
2023-01-26T05:15:47.096Z,2.50
2023-01-26T05:31:10.102Z,2.70
2023-01-26T05:46:13.082Z,2.80
2023-01-26T06:01:18.786Z,2.70
2023-01-26T06:16:27.429Z,2.70
2023-01-26T06:31:32.747Z,2.70
2023-01-26T06:46:37.143Z,4.40
2023-01-26T07:01:45.197Z,3.00
2023-01-26T07:16:50.596Z,3.00
2023-01-26T07:31:53.229Z,3.10
2023-01-26T07:46:55.747Z,2.70
2023-01-26T08:01:58.906Z,2.60
2023-01-26T08:17:01.686Z,2.60
2023-01-26T08:32:04.198Z,2.60
2023-01-26T08:47:06.559Z,2.60
2023-01-26T09:02:10.457Z,2.60
2023-01-26T09:17:12.938Z,2.60
2023-01-26T09:32:16.018Z,2.70
2023-01-26T09:47:29.033Z,2.80
2023-01-26T10:02:53.689Z,2.80
2023-01-26T10:17:56.912Z,2.90
2023-01-26T10:32:59.394Z,2.90
2023-01-26T10:48:26.790Z,2.90
2023-01-26T11:03:29.643Z,2.90
2023-01-26T11:18:51.115Z,2.90
2023-01-26T11:33:53.333Z,3.30
2023-01-26T11:48:58.511Z,3.10
2023-01-26T12:04:00.901Z,3.10
2023-01-26T12:19:15.451Z,3.10
2023-01-26T12:34:28.280Z,3.00
2023-01-26T12:49:58.993Z,3.20
2023-01-26T13:05:03.574Z,3.30
2023-01-26T13:20:35.036Z,3.40
2023-01-26T13:35:41.139Z,3.50
2023-01-26T13:50:44.331Z,3.50
2023-01-26T14:05:53.887Z,3.50
2023-01-26T14:21:04.052Z,3.60
2023-01-26T14:36:07.192Z,3.70
2023-01-26T14:51:20.345Z,3.80
2023-01-26T15:06:28.347Z,3.90
2023-01-26T15:21:39.534Z,4.00
2023-01-26T15:36:51.750Z,4.00
2023-01-26T15:51:54.276Z,4.30
2023-01-26T16:06:56.680Z,4.20
2023-01-26T16:21:59.180Z,4.30
2023-01-26T16:37:01.485Z,4.40
2023-01-26T16:52:03.983Z,4.60
2023-01-26T17:07:06.285Z,4.90
2023-01-26T17:22:08.778Z,5.00
2023-01-26T17:37:11.195Z,4.90
2023-01-26T17:52:14.327Z,5.10
2023-01-26T18:07:16.715Z,5.30
2023-01-26T18:22:19.654Z,5.30
2023-01-26T18:37:22.096Z,5.10
2023-01-26T18:52:25.752Z,5.40
2023-01-26T19:07:28.304Z,5.50
2023-01-26T19:22:31.988Z,5.50
2023-01-26T19:37:34.343Z,5.50
2023-01-26T19:52:37.051Z,5.70
2023-01-26T20:07:39.617Z,5.60
2023-01-26T20:22:42.192Z,5.60
2023-01-26T20:37:44.645Z,5.60
2023-01-26T20:52:47.380Z,5.60
2023-01-26T21:07:49.969Z,5.60
2023-01-26T21:22:55.081Z,5.50
2023-01-26T21:37:58.974Z,5.80
2023-01-26T21:53:02.838Z,5.90
2023-01-26T22:08:08.333Z,5.20
2023-01-26T22:23:12.175Z,5.10
2023-01-26T22:38:15.219Z,5.30
2023-01-26T22:53:17.686Z,5.20
2023-01-26T23:08:20.115Z,5.10
2023-01-26T23:23:22.606Z,4.50
2023-01-26T23:38:27.369Z,4.60
2023-01-26T23:53:30.731Z,4.70
